Cleveland Hopkins International Airport
KCLE : now visible

Airfield :











YOU CAN JOIN US ON...

 
LOGIN :

Register | Disclaimer

   EN    FR    IT 

 









Legend :    VFR   Marginal VFR   IFR   Intensive IFR   Very Intensive IFR
Visi :
Ceiling :
>= 8 km
>= 3000ft
5 to 8 km
1000 to 3000 ft
1500m to 5 km
500 to 1000 ft
800 to 1500m
200 to 500 ft
< 800m
< 200 ft
Symbols :   Thunderstorms  Fog  Heavy snow  Heavy precipitations  Wind > 20 kt






- Airport Elevation : 791 ft
- IATA code : CLE


KCLE - Cleveland Hopkins International

CURRENT METAR :
  • 151451Z 25017KT 9SM FEW023 FEW030 OVC049 00/M04 A3004 RMK AO2 SNB01E46 SLP180 P0000 60000 T00001044 52035

EXPIRED METARs :
  • 151437Z 25015KT 6SM -SN FEW021 BKN034 OVC047 M01/M05 A3003 RMK AO2 SNB01 P0000 T10061050
  • 151351Z 25015G21KT 10SM OVC024 M01/M05 A3001 RMK AO2 SLP169 T10061050
  • 151251Z 26014G20KT 10SM OVC026 M01/M05 A2996 RMK AO2 SNE18 SLP154 P0000 T10061050
  • 151151Z 25012KT 9SM -SN SCT018 OVC023 M01/M04 A2993 RMK AO2 SLP144 P0000 60001 70040 T10061039 10028 21006 51041

TAF KCLE
Valid from the 15 at 12:00 until the 16 at 18:00 UTC


151124Z 1512/1618 27013G21KT 6SM -SHSN OVC015
TEMPO 1512/1516 4SM -SHSN BR
FM151800 27013G20KT P6SM OVC030
FM152100 25006KT P6SM BKN035
FM160300 19004KT P6SM OVC050
FM160900 15004KT 5SM -SN BR OVC015
FM161100 14004KT 4SM -SN BR OVC007



MET'MAP, your aeronautical weather chart ! - Copyright ORBIFLY December 2007 - Disclaimer

ORBIFLY MET'MAP TEAM :

Programming & Development : Alexandra Zaïnal
Concept & original design : Baudouin d'Aumeries
Assistance for programming : Marc-Olivier Méhu
Technical & hardware support : Manuel Goepfert

Contact : metmap@orbifly.com




SOURCES & CREDITS :

   NOAA       Earth
Advisory